createdAt,value
2022-09-30T00:01:44.620Z,100.00
2022-09-30T00:04:16.500Z,100.00
2022-09-30T00:06:45.401Z,100.00
2022-09-30T00:09:14.690Z,100.00
2022-09-30T00:11:44.086Z,100.00
2022-09-30T00:14:16.976Z,100.00
2022-09-30T00:16:47.096Z,100.00
2022-09-30T00:19:15.874Z,100.00
2022-09-30T00:21:46.220Z,100.00
2022-09-30T00:24:14.706Z,100.00
2022-09-30T00:26:43.084Z,100.00
2022-09-30T00:29:12.056Z,100.00
2022-09-30T00:31:40.623Z,100.00
2022-09-30T00:34:11.685Z,100.00
2022-09-30T00:36:44.557Z,100.00
2022-09-30T00:39:16.302Z,100.00
2022-09-30T00:41:45.514Z,100.00
2022-09-30T00:44:46.781Z,100.00
2022-09-30T00:47:44.144Z,100.00
2022-09-30T00:50:21.568Z,100.00
2022-09-30T00:52:55.829Z,100.00
2022-09-30T00:55:42.053Z,100.00
2022-09-30T00:58:16.763Z,100.00
2022-09-30T01:00:45.437Z,100.00
2022-09-30T01:03:14.715Z,100.00
2022-09-30T01:05:44.875Z,100.00
2022-09-30T01:08:13.858Z,100.00
2022-09-30T01:10:42.259Z,100.00
2022-09-30T01:13:11.048Z,100.00
2022-09-30T01:15:52.032Z,100.00
2022-09-30T01:18:31.048Z,100.00
2022-09-30T01:21:35.239Z,100.00
2022-09-30T01:24:18.441Z,100.00
2022-09-30T01:27:25.254Z,100.00
2022-09-30T01:30:17.087Z,100.00
2022-09-30T01:33:12.047Z,100.00
2022-09-30T01:36:06.477Z,100.00
2022-09-30T01:38:51.548Z,100.00
2022-09-30T01:41:28.339Z,100.00
2022-09-30T01:44:05.633Z,100.00
2022-09-30T01:46:41.862Z,100.00
2022-09-30T01:49:18.811Z,100.00
2022-09-30T01:51:57.550Z,100.00
2022-09-30T01:54:31.836Z,100.00
2022-09-30T01:57:06.718Z,100.00
2022-09-30T01:59:40.446Z,100.00
2022-09-30T02:02:15.388Z,100.00
2022-09-30T02:04:49.797Z,100.00
2022-09-30T02:07:25.245Z,100.00
2022-09-30T02:09:59.188Z,100.00
2022-09-30T02:12:31.459Z,100.00
2022-09-30T02:15:07.664Z,100.00
2022-09-30T02:17:40.577Z,100.00
2022-09-30T02:20:14.911Z,100.00
2022-09-30T02:22:47.923Z,100.00
2022-09-30T02:25:20.451Z,100.00
2022-09-30T02:27:53.529Z,100.00
2022-09-30T02:30:22.129Z,100.00
2022-09-30T02:32:53.009Z,100.00
2022-09-30T02:35:26.962Z,100.00
2022-09-30T02:38:00.807Z,100.00
2022-09-30T02:40:33.192Z,100.00
2022-09-30T02:43:02.341Z,100.00
2022-09-30T02:45:37.574Z,100.00
2022-09-30T02:48:19.913Z,100.00
2022-09-30T02:50:54.332Z,100.00
2022-09-30T02:53:28.992Z,100.00
2022-09-30T02:56:10.354Z,100.00
2022-09-30T02:58:40.485Z,100.00
2022-09-30T03:01:11.537Z,100.00
2022-09-30T03:03:43.226Z,100.00
2022-09-30T03:06:13.967Z,100.00
2022-09-30T03:08:42.654Z,100.00
2022-09-30T03:11:16.384Z,100.00
2022-09-30T03:14:24.217Z,100.00
2022-09-30T03:17:07.153Z,100.00
2022-09-30T03:19:48.507Z,100.00
2022-09-30T03:22:36.238Z,100.00
2022-09-30T03:25:16.686Z,100.00
2022-09-30T03:27:54.824Z,100.00
2022-09-30T03:30:27.275Z,100.00
2022-09-30T03:33:09.081Z,100.00
2022-09-30T03:35:49.056Z,100.00
2022-09-30T03:38:31.239Z,100.00
2022-09-30T03:41:08.417Z,100.00
2022-09-30T03:43:40.013Z,100.00
2022-09-30T03:46:17.415Z,100.00
2022-09-30T03:48:48.214Z,100.00
2022-09-30T03:51:17.754Z,100.00
2022-09-30T03:53:48.224Z,100.00
2022-09-30T03:56:16.711Z,100.00
2022-09-30T03:58:46.375Z,100.00
2022-09-30T04:01:21.576Z,100.00
2022-09-30T04:03:51.995Z,100.00
2022-09-30T04:06:22.103Z,100.00
2022-09-30T04:08:53.976Z,100.00
2022-09-30T04:11:22.755Z,100.00
2022-09-30T04:13:51.126Z,100.00
2022-09-30T04:16:19.615Z,100.00
2022-09-30T04:18:48.107Z,100.00
2022-09-30T04:21:17.050Z,100.00
2022-09-30T04:23:45.482Z,100.00
2022-09-30T04:26:17.381Z,100.00
2022-09-30T04:28:45.678Z,100.00
2022-09-30T04:31:17.331Z,100.00
2022-09-30T04:33:45.988Z,100.00
2022-09-30T04:36:14.382Z,100.00
2022-09-30T04:38:42.854Z,100.00
2022-09-30T04:41:18.085Z,100.00
2022-09-30T04:43:48.540Z,100.00
2022-09-30T04:46:18.116Z,100.00
2022-09-30T04:48:46.617Z,100.00
2022-09-30T04:51:15.041Z,100.00
2022-09-30T04:53:43.767Z,100.00
2022-09-30T04:56:13.233Z,100.00
2022-09-30T04:58:43.296Z,100.00
2022-09-30T05:01:13.568Z,100.00
2022-09-30T05:03:43.463Z,100.00
2022-09-30T05:06:12.879Z,100.00
2022-09-30T05:08:45.718Z,100.00
2022-09-30T05:11:18.021Z,100.00
2022-09-30T05:13:49.279Z,100.00
2022-09-30T05:16:18.532Z,100.00
2022-09-30T05:18:47.248Z,100.00
2022-09-30T05:21:17.334Z,100.00
2022-09-30T05:23:45.834Z,100.00
2022-09-30T05:26:14.837Z,100.00
2022-09-30T05:28:44.009Z,100.00
2022-09-30T05:31:13.910Z,100.00
2022-09-30T05:33:42.554Z,100.00
2022-09-30T05:36:14.571Z,100.00
2022-09-30T05:38:43.440Z,100.00
2022-09-30T05:41:14.301Z,100.00
2022-09-30T05:43:45.464Z,100.00
2022-09-30T05:46:15.449Z,100.00
2022-09-30T05:48:44.269Z,100.00
2022-09-30T05:51:13.065Z,100.00
2022-09-30T05:53:42.317Z,100.00
2022-09-30T05:56:11.515Z,100.00
2022-09-30T05:58:41.986Z,100.00
2022-09-30T06:01:13.824Z,100.00
2022-09-30T06:03:45.594Z,100.00
2022-09-30T06:06:14.454Z,100.00
2022-09-30T06:08:43.889Z,100.00
2022-09-30T06:11:14.527Z,100.00
2022-09-30T06:13:44.033Z,100.00
2022-09-30T06:16:13.581Z,100.00
2022-09-30T06:18:43.018Z,100.00
2022-09-30T06:21:15.519Z,100.00
2022-09-30T06:23:44.322Z,100.00
2022-09-30T06:26:14.556Z,100.00
2022-09-30T06:28:43.195Z,100.00
2022-09-30T06:31:12.148Z,100.00
2022-09-30T06:33:40.762Z,100.00
2022-09-30T06:36:09.294Z,100.00
2022-09-30T06:38:40.214Z,100.00
2022-09-30T06:41:09.867Z,100.00
2022-09-30T06:43:41.549Z,100.00
2022-09-30T06:46:21.547Z,100.00
2022-09-30T06:49:07.823Z,100.00
2022-09-30T06:51:39.569Z,100.00
2022-09-30T06:54:10.433Z,100.00
2022-09-30T06:56:39.069Z,100.00
2022-09-30T06:59:07.528Z,100.00
2022-09-30T07:01:36.225Z,100.00
2022-09-30T07:04:09.682Z,100.00
2022-09-30T07:06:39.212Z,100.00
2022-09-30T07:09:09.881Z,100.00
2022-09-30T07:11:39.222Z,100.00
2022-09-30T07:14:08.879Z,100.00
2022-09-30T07:16:38.679Z,100.00
2022-09-30T07:19:10.309Z,100.00
2022-09-30T07:21:39.121Z,100.00
2022-09-30T07:24:09.884Z,100.00
2022-09-30T07:26:39.726Z,100.00
2022-09-30T07:29:08.675Z,100.00
2022-09-30T07:31:37.260Z,100.00
2022-09-30T07:34:08.485Z,100.00
2022-09-30T07:36:38.378Z,100.00
2022-09-30T07:39:10.689Z,100.00
2022-09-30T07:41:40.875Z,100.00
2022-09-30T07:44:14.428Z,100.00
2022-09-30T07:46:44.717Z,100.00
2022-09-30T07:49:20.977Z,100.00
2022-09-30T07:51:49.341Z,100.00
2022-09-30T07:54:22.744Z,100.00
2022-09-30T07:59:42.681Z,100.00
2022-09-30T08:02:16.858Z,100.00
2022-09-30T08:04:46.200Z,100.00
2022-09-30T08:07:16.661Z,100.00
2022-09-30T08:09:46.883Z,100.00
2022-09-30T08:12:15.517Z,100.00
2022-09-30T08:14:44.924Z,100.00
2022-09-30T08:17:14.109Z,100.00
2022-09-30T08:19:44.828Z,100.00
2022-09-30T08:22:14.222Z,100.00
2022-09-30T08:24:42.759Z,100.00
2022-09-30T08:27:12.646Z,100.00
2022-09-30T08:29:58.424Z,100.00
2022-09-30T08:32:33.703Z,100.00
2022-09-30T08:35:02.157Z,100.00
2022-09-30T08:37:30.865Z,100.00
2022-09-30T08:39:59.204Z,100.00
2022-09-30T08:42:45.324Z,100.00
2022-09-30T08:45:30.809Z,100.00
2022-09-30T08:48:11.040Z,100.00
2022-09-30T08:50:50.246Z,100.00
2022-09-30T08:53:24.769Z,100.00
2022-09-30T08:55:57.254Z,100.00
2022-09-30T08:58:30.704Z,100.00
2022-09-30T09:01:05.496Z,100.00
2022-09-30T09:03:35.263Z,100.00
2022-09-30T09:06:17.876Z,100.00
2022-09-30T09:09:01.673Z,100.00
2022-09-30T09:11:49.787Z,100.00
2022-09-30T09:14:32.177Z,100.00
2022-09-30T09:17:15.421Z,100.00
2022-09-30T09:19:54.938Z,100.00
2022-09-30T09:22:25.228Z,100.00
2022-09-30T09:24:55.317Z,100.00
2022-09-30T09:27:28.395Z,100.00
2022-09-30T09:30:06.845Z,100.00
2022-09-30T09:32:36.696Z,100.00
2022-09-30T09:35:15.761Z,100.00
2022-09-30T09:38:14.820Z,100.00
2022-09-30T09:40:57.696Z,100.00
2022-09-30T09:43:43.980Z,100.00
2022-09-30T09:46:24.064Z,100.00
2022-09-30T09:49:12.721Z,100.00
2022-09-30T09:51:44.197Z,100.00
2022-09-30T09:54:14.645Z,100.00
2022-09-30T09:56:43.143Z,100.00
2022-09-30T09:59:16.034Z,100.00
2022-09-30T10:01:51.398Z,100.00
2022-09-30T10:04:24.679Z,100.00
2022-09-30T10:06:55.598Z,100.00
2022-09-30T10:09:27.829Z,100.00
2022-09-30T10:12:34.975Z,100.00
2022-09-30T10:15:22.926Z,100.00
2022-09-30T10:17:55.335Z,100.00
2022-09-30T10:20:30.738Z,100.00
2022-09-30T10:23:09.938Z,100.00
2022-09-30T10:25:38.322Z,100.00
2022-09-30T10:28:24.472Z,100.00
2022-09-30T10:30:57.286Z,100.00
2022-09-30T10:33:34.366Z,100.00
2022-09-30T10:36:13.995Z,100.00
2022-09-30T10:39:02.696Z,100.00
2022-09-30T10:41:36.136Z,100.00
2022-09-30T10:44:08.070Z,100.00
2022-09-30T10:46:40.067Z,100.00
2022-09-30T10:49:26.207Z,100.00
2022-09-30T10:51:55.531Z,100.00
2022-09-30T10:54:49.041Z,100.00
2022-09-30T10:57:21.284Z,100.00
2022-09-30T10:59:51.701Z,100.00
2022-09-30T11:02:26.783Z,100.00
2022-09-30T11:05:15.282Z,100.00
2022-09-30T11:07:48.669Z,100.00
2022-09-30T11:10:33.004Z,100.00
2022-09-30T11:13:09.068Z,100.00
2022-09-30T11:15:46.347Z,100.00
2022-09-30T11:18:24.164Z,100.00
2022-09-30T11:20:58.739Z,100.00
2022-09-30T11:23:34.665Z,100.00
2022-09-30T11:26:13.996Z,100.00
2022-09-30T11:28:56.237Z,100.00
2022-09-30T11:31:31.875Z,100.00
2022-09-30T11:34:17.661Z,100.00
2022-09-30T11:36:57.437Z,100.00
2022-09-30T11:39:38.126Z,100.00
2022-09-30T11:42:12.069Z,100.00
2022-09-30T11:44:43.990Z,100.00
2022-09-30T11:47:38.617Z,100.00
2022-09-30T11:50:23.970Z,100.00
2022-09-30T11:53:03.339Z,100.00
2022-09-30T11:55:43.697Z,100.00
2022-09-30T11:58:39.768Z,100.00
2022-09-30T12:01:15.603Z,100.00
2022-09-30T12:03:47.282Z,100.00
2022-09-30T12:06:30.052Z,100.00
2022-09-30T12:09:07.748Z,100.00
2022-09-30T12:11:43.951Z,100.00
2022-09-30T12:14:20.062Z,100.00
2022-09-30T12:16:51.345Z,100.00
2022-09-30T12:19:26.469Z,100.00
2022-09-30T12:22:00.324Z,100.00
2022-09-30T12:24:37.044Z,100.00
2022-09-30T12:27:06.794Z,100.00
2022-09-30T12:29:58.899Z,100.00
2022-09-30T12:32:55.258Z,100.00
2022-09-30T12:35:39.093Z,100.00
2022-09-30T12:38:22.913Z,100.00
2022-09-30T12:41:09.323Z,98.55
2022-09-30T12:44:19.847Z,100.00
2022-09-30T12:47:01.197Z,100.00
2022-09-30T12:49:32.586Z,100.00
2022-09-30T12:52:05.834Z,94.07
2022-09-30T12:54:36.735Z,100.00
2022-09-30T12:57:10.294Z,90.72
2022-09-30T12:59:48.238Z,94.32
2022-09-30T13:02:32.313Z,79.78
2022-09-30T13:05:39.485Z,78.91
2022-09-30T13:08:25.413Z,70.30
2022-09-30T13:11:00.291Z,67.41
2022-09-30T13:13:34.845Z,62.39
2022-09-30T13:16:05.847Z,65.51
2022-09-30T13:19:03.245Z,58.12
2022-09-30T13:21:32.652Z,67.00
2022-09-30T13:24:01.909Z,69.05
2022-09-30T13:26:48.696Z,65.03
2022-09-30T13:29:38.576Z,65.39
2022-09-30T13:32:09.569Z,59.17
2022-09-30T13:34:58.022Z,58.98
2022-09-30T13:37:37.875Z,56.81
2022-09-30T13:40:14.883Z,56.38
2022-09-30T13:42:51.961Z,52.33
2022-09-30T13:45:33.886Z,50.77
2022-09-30T13:48:11.991Z,53.98
2022-09-30T13:50:46.656Z,53.29
2022-09-30T13:53:22.954Z,50.88
2022-09-30T13:55:55.003Z,52.29
2022-09-30T13:59:01.646Z,48.96
2022-09-30T14:01:46.892Z,52.65
2022-09-30T14:04:48.035Z,53.10
2022-09-30T14:07:31.379Z,57.88
2022-09-30T14:10:16.739Z,57.82
2022-09-30T14:13:04.270Z,55.77
2022-09-30T14:16:09.057Z,55.58
2022-09-30T14:19:09.365Z,55.58
2022-09-30T14:21:43.062Z,57.35
2022-09-30T14:24:16.035Z,58.16
2022-09-30T14:27:05.489Z,57.72
2022-09-30T14:29:43.439Z,59.40
2022-09-30T14:32:14.013Z,58.87
2022-09-30T14:34:44.038Z,59.18
2022-09-30T14:37:20.413Z,57.95
2022-09-30T14:39:50.259Z,58.80
2022-09-30T14:42:25.340Z,59.39
2022-09-30T14:44:56.351Z,60.17
2022-09-30T14:47:26.874Z,60.29
2022-09-30T14:49:56.720Z,57.15
2022-09-30T14:52:38.475Z,59.46
2022-09-30T14:55:22.188Z,56.54
2022-09-30T14:57:51.370Z,57.89
2022-09-30T15:00:29.182Z,58.12
2022-09-30T15:02:57.985Z,59.15
2022-09-30T15:05:29.101Z,59.23
2022-09-30T15:07:58.043Z,59.72
2022-09-30T15:10:26.859Z,61.34
2022-09-30T15:12:56.475Z,63.44
2022-09-30T15:15:28.537Z,63.38
2022-09-30T15:17:57.660Z,64.00
2022-09-30T15:20:33.793Z,61.86
2022-09-30T15:23:07.415Z,64.46
2022-09-30T15:25:36.903Z,63.89
2022-09-30T15:28:07.035Z,62.74
2022-09-30T15:30:35.437Z,65.43
2022-09-30T15:33:07.643Z,64.67
2022-09-30T15:35:37.460Z,65.81
2022-09-30T15:38:11.625Z,66.28
2022-09-30T15:40:50.495Z,66.78
2022-09-30T15:43:34.524Z,68.14
2022-09-30T15:46:26.974Z,67.51
2022-09-30T15:48:58.605Z,70.77
2022-09-30T15:51:31.959Z,69.69
2022-09-30T15:54:01.609Z,71.28
2022-09-30T15:56:36.348Z,71.61
2022-09-30T15:59:07.852Z,74.33
2022-09-30T16:01:39.196Z,75.75
2022-09-30T16:04:15.358Z,74.03
2022-09-30T16:06:51.843Z,73.64
2022-09-30T16:09:25.687Z,73.61
2022-09-30T16:12:05.415Z,72.78
2022-09-30T16:14:42.279Z,73.11
2022-09-30T16:17:18.101Z,73.12
2022-09-30T16:19:52.388Z,74.01
2022-09-30T16:22:53.406Z,72.73
2022-09-30T16:25:26.570Z,76.49
2022-09-30T16:27:59.293Z,77.40
2022-09-30T16:30:29.483Z,77.98
2022-09-30T16:33:00.846Z,80.21
2022-09-30T16:35:29.970Z,82.29
2022-09-30T16:38:06.040Z,84.88
2022-09-30T16:40:38.061Z,88.89
2022-09-30T16:43:07.741Z,92.19
2022-09-30T16:45:36.630Z,95.84
2022-09-30T16:48:13.100Z,97.89
2022-09-30T16:50:44.906Z,100.00
2022-09-30T16:53:14.691Z,100.00
2022-09-30T16:55:43.077Z,100.00
2022-09-30T16:58:13.387Z,100.00
2022-09-30T17:00:45.403Z,100.00
2022-09-30T17:03:15.207Z,100.00
2022-09-30T17:05:45.519Z,100.00
2022-09-30T17:08:17.822Z,100.00
2022-09-30T17:10:50.053Z,100.00
2022-09-30T17:13:19.676Z,100.00
2022-09-30T17:15:52.339Z,100.00
2022-09-30T17:18:21.277Z,100.00
2022-09-30T17:20:53.188Z,100.00
2022-09-30T17:23:25.300Z,100.00
2022-09-30T17:25:54.775Z,100.00
2022-09-30T17:28:23.427Z,100.00
2022-09-30T17:30:52.305Z,100.00
2022-09-30T17:33:20.954Z,100.00
2022-09-30T17:36:00.604Z,100.00
2022-09-30T17:38:30.876Z,100.00
2022-09-30T17:41:22.202Z,100.00
2022-09-30T17:43:50.623Z,100.00
2022-09-30T17:46:23.735Z,100.00
2022-09-30T17:48:57.898Z,100.00
2022-09-30T17:51:26.436Z,100.00
2022-09-30T17:53:57.108Z,100.00
2022-09-30T17:56:25.485Z,100.00
2022-09-30T17:58:54.115Z,100.00
2022-09-30T18:01:22.826Z,100.00
2022-09-30T18:03:53.060Z,100.00
2022-09-30T18:06:22.268Z,100.00
2022-09-30T18:08:50.788Z,100.00
2022-09-30T18:11:23.204Z,100.00
2022-09-30T18:13:57.799Z,100.00
2022-09-30T18:16:30.492Z,100.00
2022-09-30T18:19:00.610Z,100.00
2022-09-30T18:21:30.205Z,100.00
2022-09-30T18:24:00.779Z,100.00
2022-09-30T18:26:35.997Z,100.00
2022-09-30T18:29:06.281Z,100.00
2022-09-30T18:31:37.789Z,100.00
2022-09-30T18:34:08.150Z,100.00
2022-09-30T18:36:37.524Z,100.00
2022-09-30T18:39:06.022Z,100.00
2022-09-30T18:41:40.658Z,100.00
2022-09-30T18:44:12.252Z,100.00
2022-09-30T18:46:42.371Z,100.00
2022-09-30T18:49:11.302Z,100.00
2022-09-30T18:51:40.318Z,100.00
2022-09-30T18:54:08.668Z,100.00
2022-09-30T18:56:38.386Z,100.00
2022-09-30T19:01:36.597Z,100.00
2022-09-30T19:04:06.167Z,100.00
2022-09-30T19:06:35.689Z,100.00
2022-09-30T19:09:06.570Z,100.00
2022-09-30T19:11:35.581Z,100.00
2022-09-30T19:14:07.012Z,100.00
2022-09-30T19:16:38.941Z,100.00
2022-09-30T19:19:10.388Z,100.00
2022-09-30T19:21:39.512Z,100.00
2022-09-30T19:24:10.052Z,100.00
2022-09-30T19:26:40.470Z,100.00
2022-09-30T19:29:11.554Z,100.00
2022-09-30T19:31:40.235Z,100.00
2022-09-30T19:34:11.682Z,100.00
2022-09-30T19:36:49.312Z,100.00
2022-09-30T19:39:20.326Z,100.00
2022-09-30T19:41:48.748Z,100.00
2022-09-30T19:44:19.348Z,100.00
2022-09-30T19:46:50.339Z,100.00
2022-09-30T19:49:21.750Z,100.00
2022-09-30T19:51:52.260Z,100.00
2022-09-30T19:54:33.391Z,100.00
2022-09-30T19:57:06.981Z,100.00
2022-09-30T19:59:39.259Z,100.00
2022-09-30T20:02:09.025Z,100.00
2022-09-30T20:04:38.968Z,100.00
2022-09-30T20:07:07.753Z,100.00
2022-09-30T20:09:36.315Z,100.00
2022-09-30T20:12:05.027Z,100.00
2022-09-30T20:14:56.548Z,100.00
2022-09-30T20:17:26.454Z,100.00
2022-09-30T20:20:12.137Z,100.00
2022-09-30T20:22:40.585Z,100.00
2022-09-30T20:25:09.962Z,100.00
2022-09-30T20:27:43.069Z,100.00
2022-09-30T20:30:12.035Z,100.00
2022-09-30T20:32:41.937Z,100.00
2022-09-30T20:35:11.456Z,100.00
2022-09-30T20:37:40.988Z,100.00
2022-09-30T20:40:10.393Z,100.00
2022-09-30T20:42:40.238Z,100.00
2022-09-30T20:45:12.368Z,100.00
2022-09-30T20:47:45.104Z,100.00
2022-09-30T20:50:13.854Z,100.00
2022-09-30T20:52:42.406Z,100.00
2022-09-30T20:55:11.192Z,100.00
2022-09-30T20:57:44.945Z,100.00
2022-09-30T21:00:16.402Z,100.00
2022-09-30T21:02:50.592Z,100.00
2022-09-30T21:05:19.071Z,100.00
2022-09-30T21:07:47.584Z,100.00
2022-09-30T21:10:17.644Z,100.00
2022-09-30T21:12:47.010Z,100.00
2022-09-30T21:15:15.871Z,100.00
2022-09-30T21:17:45.497Z,100.00
2022-09-30T21:20:15.663Z,100.00
2022-09-30T21:22:44.142Z,100.00
2022-09-30T21:25:15.044Z,100.00
2022-09-30T21:27:46.814Z,100.00
2022-09-30T21:30:16.538Z,100.00
2022-09-30T21:32:45.772Z,100.00
2022-09-30T21:35:16.356Z,100.00
2022-09-30T21:37:44.919Z,100.00
2022-09-30T21:40:13.452Z,100.00
2022-09-30T21:42:43.116Z,100.00
2022-09-30T21:45:11.784Z,100.00
2022-09-30T21:47:40.641Z,100.00
2022-09-30T21:50:09.871Z,100.00
2022-09-30T21:52:39.672Z,100.00
2022-09-30T21:55:08.940Z,100.00
2022-09-30T21:57:37.496Z,100.00
2022-09-30T22:00:06.407Z,100.00
2022-09-30T22:02:43.967Z,100.00
2022-09-30T22:05:12.689Z,100.00
2022-09-30T22:07:42.978Z,100.00
2022-09-30T22:10:11.866Z,100.00
2022-09-30T22:12:40.205Z,100.00
2022-09-30T22:15:09.567Z,100.00
2022-09-30T22:17:38.109Z,100.00
2022-09-30T22:20:07.696Z,100.00
2022-09-30T22:22:36.288Z,100.00
2022-09-30T22:25:07.278Z,100.00
2022-09-30T22:27:35.681Z,100.00
2022-09-30T22:30:04.741Z,100.00
2022-09-30T22:32:33.091Z,100.00
2022-09-30T22:35:22.492Z,100.00
2022-09-30T22:38:08.780Z,100.00
2022-09-30T22:40:38.504Z,100.00
2022-09-30T22:43:06.903Z,100.00
2022-09-30T22:45:36.204Z,100.00
2022-09-30T22:48:04.750Z,100.00
2022-09-30T22:50:38.663Z,100.00
2022-09-30T22:53:07.201Z,100.00
2022-09-30T22:55:36.250Z,100.00
2022-09-30T22:58:06.228Z,100.00
2022-09-30T23:00:35.235Z,100.00
2022-09-30T23:03:03.692Z,100.00
2022-09-30T23:05:32.022Z,100.00
2022-09-30T23:08:00.365Z,100.00
2022-09-30T23:10:28.985Z,100.00
2022-09-30T23:12:57.474Z,100.00
2022-09-30T23:15:27.268Z,100.00
2022-09-30T23:17:55.650Z,100.00
2022-09-30T23:20:24.001Z,100.00
2022-09-30T23:22:52.373Z,100.00
2022-09-30T23:25:20.886Z,100.00
2022-09-30T23:27:49.916Z,100.00
2022-09-30T23:30:18.651Z,100.00
2022-09-30T23:32:48.653Z,100.00
2022-09-30T23:35:17.147Z,100.00
2022-09-30T23:37:51.493Z,100.00
2022-09-30T23:40:19.936Z,100.00
2022-09-30T23:42:50.573Z,100.00
2022-09-30T23:45:18.986Z,100.00
2022-09-30T23:47:49.582Z,100.00
2022-09-30T23:50:18.820Z,100.00
2022-09-30T23:52:47.088Z,100.00
2022-09-30T23:55:15.454Z,100.00
2022-09-30T23:57:47.190Z,100.00
